Time;durP1;ratioP1;P1;durP2;ratioP2;P2;SDS_P1;SDS_P2;PMS_P1;PMS_P2;Temp;Humidity;BMP_temperature;BMP_pressure;BME280_temperature;BME280_humidity;BME280_pressure;Samples;Min_cycle;Max_cycle;Signal;HPM_P1;HPM_P2
2021/07/05 00:00:25;;;;;;;0.52;0.50;;;25.10;56.80;;;;;;5069999;28;20060;-47
2021/07/05 00:02:51;;;;;;;0.55;0.50;;;25.10;56.80;;;;;;5056096;28;20029;-52
2021/07/05 00:05:17;;;;;;;0.60;0.57;;;25.10;56.80;;;;;;5060021;28;20124;-46
2021/07/05 00:07:47;;;;;;;0.90;0.70;;;25.10;56.80;;;;;;5069652;28;20436;-48
2021/07/05 00:10:15;;;;;;;0.70;0.70;;;25.10;56.70;;;;;;5070195;28;20119;-51
2021/07/05 00:12:45;;;;;;;0.60;0.50;;;25.10;56.70;;;;;;5055332;28;20021;-45
2021/07/05 00:15:13;;;;;;;1.30;0.47;;;25.10;56.70;;;;;;5069755;28;20040;-49
2021/07/05 00:17:39;;;;;;;1.63;0.50;;;25.10;56.60;;;;;;5069970;28;20051;-50
2021/07/05 00:20:06;;;;;;;0.95;0.70;;;25.10;56.70;;;;;;5062143;28;20029;-52
2021/07/05 00:22:32;;;;;;;1.08;0.73;;;25.10;56.60;;;;;;5065557;28;20055;-55
2021/07/05 00:24:58;;;;;;;0.52;0.43;;;25.10;56.60;;;;;;5054565;28;20055;-49
2021/07/05 00:27:24;;;;;;;1.45;0.60;;;25.10;56.60;;;;;;5033934;28;20087;-50
2021/07/05 00:29:49;;;;;;;0.47;0.47;;;25.10;56.60;;;;;;5050283;28;20033;-46
2021/07/05 00:32:15;;;;;;;0.50;0.50;;;25.10;56.60;;;;;;5057961;28;20162;-48
2021/07/05 00:34:40;;;;;;;0.82;0.47;;;25.10;56.60;;;;;;5066408;28;20052;-45
2021/07/05 00:37:06;;;;;;;0.80;0.50;;;25.10;56.60;;;;;;5062999;28;20066;-46
2021/07/05 00:39:32;;;;;;;0.52;0.38;;;25.10;56.60;;;;;;5053030;28;20072;-58
2021/07/05 00:41:57;;;;;;;0.45;0.40;;;25.10;56.60;;;;;;5062557;28;20032;-46
2021/07/05 00:44:23;;;;;;;0.60;0.50;;;25.10;56.60;;;;;;5051126;28;20021;-46
2021/07/05 00:46:49;;;;;;;0.50;0.50;;;25.10;56.60;;;;;;5055183;28;20562;-47
2021/07/05 00:49:14;;;;;;;0.57;0.50;;;25.10;56.60;;;;;;5070116;28;20363;-55
2021/07/05 00:51:40;;;;;;;0.70;0.50;;;25.10;56.60;;;;;;5065130;28;20112;-53
2021/07/05 00:54:06;;;;;;;1.20;0.60;;;25.10;56.60;;;;;;5064234;28;20032;-49
2021/07/05 00:56:31;;;;;;;0.75;0.60;;;25.10;56.60;;;;;;5053366;28;20024;-46
2021/07/05 00:58:59;;;;;;;0.57;0.45;;;25.10;56.60;;;;;;5066571;28;20074;-46
2021/07/05 01:01:25;;;;;;;0.80;0.57;;;25.10;56.60;;;;;;5039855;28;20044;-46
2021/07/05 01:03:51;;;;;;;0.40;0.40;;;25.10;56.50;;;;;;5038491;28;20029;-46
2021/07/05 01:06:17;;;;;;;0.75;0.68;;;25.10;56.50;;;;;;5034816;28;20041;-50
2021/07/05 01:08:42;;;;;;;0.63;0.50;;;25.10;56.50;;;;;;5051361;28;20028;-49
2021/07/05 01:11:08;;;;;;;0.55;0.55;;;25.10;56.50;;;;;;5053802;28;20021;-46
2021/07/05 01:13:34;;;;;;;0.50;0.40;;;25.10;56.50;;;;;;5036083;28;20029;-56
2021/07/05 01:16:01;;;;;;;0.55;0.55;;;25.10;56.50;;;;;;5034209;28;20033;-46
2021/07/05 01:18:27;;;;;;;0.55;0.43;;;25.10;56.50;;;;;;5042450;28;20040;-47
2021/07/05 01:20:53;;;;;;;0.90;0.50;;;25.00;56.40;;;;;;5052820;28;20217;-45
2021/07/05 01:23:19;;;;;;;0.95;0.70;;;25.10;56.50;;;;;;5040230;28;20454;-47
2021/07/05 01:25:44;;;;;;;0.80;0.50;;;25.00;56.50;;;;;;5051333;28;20067;-51
2021/07/05 01:28:11;;;;;;;0.40;0.40;;;25.00;56.50;;;;;;5038222;28;20029;-53
2021/07/05 01:30:37;;;;;;;1.05;0.50;;;25.00;56.50;;;;;;5052576;28;20039;-57
2021/07/05 01:33:07;;;;;;;0.80;0.50;;;25.00;56.50;;;;;;5046207;28;20497;-48
2021/07/05 01:35:32;;;;;;;0.80;0.60;;;25.00;56.50;;;;;;5053461;28;20417;-48
2021/07/05 01:37:59;;;;;;;0.30;0.30;;;25.00;56.40;;;;;;5042583;28;20040;-49
2021/07/05 01:40:25;;;;;;;0.50;0.50;;;25.00;56.40;;;;;;5039476;28;20064;-48
2021/07/05 01:42:55;;;;;;;0.32;0.32;;;25.00;56.40;;;;;;5040727;28;20056;-47
2021/07/05 01:45:24;;;;;;;0.65;0.50;;;25.00;56.40;;;;;;5034215;28;20394;-46
2021/07/05 01:47:50;;;;;;;0.60;0.55;;;25.10;56.50;;;;;;5033291;28;20056;-53
2021/07/05 01:50:16;;;;;;;0.85;0.40;;;25.10;56.50;;;;;;5034183;28;20060;-47
2021/07/05 01:52:43;;;;;;;0.57;0.40;;;25.00;56.40;;;;;;5042671;28;20029;-46
2021/07/05 01:55:09;;;;;;;0.40;0.40;;;25.00;56.40;;;;;;5048842;28;20513;-45
2021/07/05 01:57:36;;;;;;;1.20;0.50;;;25.10;56.50;;;;;;5045356;28;20036;-59
2021/07/05 02:00:09;;;;;;;1.17;0.60;;;25.00;56.30;;;;;;5050163;28;20091;-47
2021/07/05 02:02:35;;;;;;;0.50;0.50;;;25.00;56.30;;;;;;5060328;28;20462;-53
2021/07/05 02:05:00;;;;;;;1.58;0.50;;;25.00;56.30;;;;;;5053568;28;20059;-45
2021/07/05 02:07:26;;;;;;;0.57;0.57;;;25.00;56.40;;;;;;5069290;28;20040;-46
2021/07/05 02:09:52;;;;;;;1.15;0.50;;;25.00;56.40;;;;;;5055642;28;20474;-52
2021/07/05 02:12:18;;;;;;;0.50;0.50;;;25.00;56.30;;;;;;5053058;28;20024;-48
2021/07/05 02:14:43;;;;;;;0.52;0.50;;;25.00;56.30;;;;;;5051040;28;20036;-52
2021/07/05 02:17:11;;;;;;;0.88;0.70;;;25.00;56.40;;;;;;5054662;28;20020;-49
2021/07/05 02:19:37;;;;;;;0.70;0.47;;;25.00;56.40;;;;;;5058216;28;20032;-56
2021/07/05 02:22:05;;;;;;;0.77;0.50;;;25.00;56.40;;;;;;5071846;28;20033;-46
2021/07/05 02:24:31;;;;;;;0.40;0.40;;;25.00;56.40;;;;;;5062328;28;20032;-45
2021/07/05 02:26:57;;;;;;;1.00;0.50;;;25.00;56.40;;;;;;5053988;28;20104;-45
2021/07/05 02:29:23;;;;;;;1.17;0.60;;;25.00;56.40;;;;;;5053173;28;20104;-49
2021/07/05 02:31:49;;;;;;;0.60;0.60;;;25.00;56.40;;;;;;5052352;28;20465;-52
2021/07/05 02:34:15;;;;;;;0.47;0.47;;;25.00;56.40;;;;;;5065032;28;20028;-52
2021/07/05 02:36:41;;;;;;;0.80;0.52;;;25.00;56.40;;;;;;5070476;28;20029;-50
2021/07/05 02:39:07;;;;;;;0.70;0.60;;;25.00;56.40;;;;;;5072650;28;20035;-46
2021/07/05 02:41:33;;;;;;;0.50;0.50;;;25.00;56.30;;;;;;5072270;28;20040;-47
2021/07/05 02:43:59;;;;;;;0.55;0.50;;;25.00;56.30;;;;;;5070934;28;20059;-46
2021/07/05 02:46:24;;;;;;;0.68;0.57;;;25.00;56.40;;;;;;5068167;28;20052;-48
2021/07/05 02:48:50;;;;;;;1.65;0.60;;;25.00;56.30;;;;;;5068115;28;20024;-51
2021/07/05 02:51:17;;;;;;;0.63;0.50;;;25.00;56.30;;;;;;5055451;28;20037;-48
2021/07/05 02:53:43;;;;;;;1.92;0.50;;;25.00;56.30;;;;;;5045229;28;20470;-46
2021/07/05 02:56:09;;;;;;;0.98;0.43;;;25.00;56.40;;;;;;5071569;28;20537;-46
2021/07/05 02:58:35;;;;;;;0.60;0.50;;;25.00;56.00;;;;;;5062146;28;20108;-47
2021/07/05 03:01:03;;;;;;;1.92;0.65;;;25.00;55.10;;;;;;5064571;28;20075;-46
2021/07/05 03:03:29;;;;;;;1.95;0.50;;;25.00;54.80;;;;;;5065639;28;20119;-49
2021/07/05 03:05:54;;;;;;;1.95;0.57;;;25.00;54.80;;;;;;5070348;28;20131;-49
2021/07/05 03:08:20;;;;;;;4.65;0.60;;;25.00;54.90;;;;;;5069609;28;20251;-46
2021/07/05 03:10:47;;;;;;;2.10;0.75;;;25.00;56.00;;;;;;5057935;28;20458;-50
2021/07/05 03:13:16;;;;;;;1.08;0.45;;;25.00;55.80;;;;;;5067699;28;20028;-50
2021/07/05 03:15:43;;;;;;;0.60;0.43;;;25.00;56.50;;;;;;5066003;28;20504;-51
2021/07/05 03:18:08;;;;;;;0.60;0.55;;;25.00;55.50;;;;;;5068855;28;20031;-45
2021/07/05 03:20:40;;;;;;;1.27;0.40;;;25.00;55.40;;;;;;5065100;28;20020;-50
2021/07/05 03:23:07;;;;;;;;;;;25.00;55.30;;;;;;5063406;28;20025;-48
2021/07/05 03:25:35;;;;;;;2.83;0.40;;;25.00;55.30;;;;;;5064011;28;19917;-46
2021/07/05 03:28:01;;;;;;;0.50;0.50;;;25.00;55.20;;;;;;5064022;28;20028;-46
2021/07/05 03:30:28;;;;;;;0.77;0.52;;;24.90;55.10;;;;;;5068290;28;20078;-49
2021/07/05 03:32:54;;;;;;;0.73;0.52;;;25.00;55.20;;;;;;5067052;28;20028;-49
2021/07/05 03:35:21;;;;;;;0.90;0.60;;;25.00;55.20;;;;;;5046181;28;20039;-50
2021/07/05 03:37:48;;;;;;;0.70;0.52;;;25.00;55.20;;;;;;5065709;28;20027;-48
2021/07/05 03:40:20;;;;;;;0.50;0.40;;;24.90;55.30;;;;;;5068903;28;20029;-49
2021/07/05 03:42:47;;;;;;;1.50;1.15;;;25.00;55.20;;;;;;5064527;28;20105;-49
2021/07/05 03:45:14;;;;;;;2.85;0.70;;;25.00;55.20;;;;;;5066116;28;20040;-49
2021/07/05 03:47:40;;;;;;;0.60;0.45;;;25.00;55.10;;;;;;5063135;28;20044;-55
2021/07/05 03:50:08;;;;;;;0.55;0.50;;;25.00;55.10;;;;;;5047230;28;20035;-46
2021/07/05 03:52:35;;;;;;;0.50;0.50;;;24.90;55.10;;;;;;5065818;28;20048;-47
2021/07/05 03:55:01;;;;;;;1.85;0.60;;;24.90;55.30;;;;;;5065681;28;20024;-45
2021/07/05 03:57:26;;;;;;;0.60;0.40;;;25.00;55.20;;;;;;5069779;28;20033;-47
2021/07/05 03:59:54;;;;;;;0.63;0.52;;;24.90;55.20;;;;;;5064530;28;20041;-48
2021/07/05 04:02:20;;;;;;;0.77;0.40;;;24.90;55.20;;;;;;5063687;28;20077;-49
2021/07/05 04:04:46;;;;;;;1.48;0.50;;;24.90;55.10;;;;;;5068837;28;20060;-49
2021/07/05 04:07:13;;;;;;;0.60;0.50;;;24.90;55.20;;;;;;5066726;28;20096;-49
2021/07/05 04:09:41;;;;;;;1.27;0.50;;;25.00;55.20;;;;;;5067147;28;20487;-55
2021/07/05 04:12:11;;;;;;;0.63;0.52;;;25.00;55.20;;;;;;5065776;28;20025;-46
2021/07/05 04:14:38;;;;;;;1.20;0.60;;;25.00;55.30;;;;;;5067199;28;20059;-56
2021/07/05 04:17:04;;;;;;;1.75;0.65;;;24.90;55.20;;;;;;5065093;28;20359;-52
2021/07/05 04:19:30;;;;;;;0.47;0.47;;;25.00;55.30;;;;;;5066263;28;20032;-53
2021/07/05 04:21:56;;;;;;;1.13;0.50;;;24.90;55.20;;;;;;5065961;28;20470;-48
2021/07/05 04:24:22;;;;;;;1.80;0.50;;;24.90;55.20;;;;;;5064200;28;20077;-45
2021/07/05 04:26:48;;;;;;;2.72;0.80;;;25.00;55.20;;;;;;5035212;28;20029;-46
2021/07/05 04:29:15;;;;;;;0.68;0.50;;;24.90;55.00;;;;;;5062762;28;20025;-46
2021/07/05 04:31:41;;;;;;;0.93;0.47;;;24.90;55.10;;;;;;5055515;28;20036;-55
2021/07/05 04:34:06;;;;;;;0.82;0.40;;;25.00;55.10;;;;;;5064124;28;20036;-46
2021/07/05 04:36:32;;;;;;;0.40;0.32;;;24.90;55.10;;;;;;5073264;28;20043;-48
2021/07/05 04:38:58;;;;;;;1.02;0.50;;;25.00;55.00;;;;;;5074005;28;20094;-45
2021/07/05 04:41:23;;;;;;;1.17;0.57;;;25.00;55.00;;;;;;5071381;28;20029;-47
2021/07/05 04:43:49;;;;;;;1.30;0.68;;;24.90;55.00;;;;;;5060848;28;20461;-51
2021/07/05 04:46:17;;;;;;;1.02;0.50;;;24.90;55.10;;;;;;5073653;28;20112;-52
2021/07/05 04:48:42;;;;;;;1.05;0.50;;;24.90;55.00;;;;;;5064001;28;20091;-56
2021/07/05 04:51:10;;;;;;;0.70;0.50;;;24.90;54.90;;;;;;5054966;28;20029;-53
2021/07/05 04:53:36;;;;;;;0.95;0.40;;;25.00;55.00;;;;;;5059304;28;20600;-49
2021/07/05 04:56:02;;;;;;;0.70;0.52;;;24.90;55.00;;;;;;5073780;28;20150;-52
2021/07/05 04:58:28;;;;;;;1.85;0.50;;;24.90;54.90;;;;;;5064614;28;20028;-49
2021/07/05 05:00:54;;;;;;;1.00;0.40;;;24.90;55.00;;;;;;5068304;28;20045;-49
2021/07/05 05:03:19;;;;;;;1.90;0.60;;;24.90;55.60;;;;;;5056488;28;20032;-46
2021/07/05 05:05:45;;;;;;;0.80;0.50;;;24.90;54.90;;;;;;5071791;28;20037;-50
2021/07/05 05:08:11;;;;;;;0.40;0.40;;;24.90;54.90;;;;;;5063695;28;20073;-47
2021/07/05 05:10:39;;;;;;;0.82;0.60;;;24.90;55.00;;;;;;5071020;28;20036;-49
2021/07/05 05:13:05;;;;;;;0.82;0.57;;;25.00;55.00;;;;;;5061654;28;20423;-50
2021/07/05 05:15:30;;;;;;;0.43;0.40;;;24.90;55.00;;;;;;5060641;28;20155;-49
2021/07/05 05:17:56;;;;;;;1.02;0.40;;;24.90;55.00;;;;;;5056490;28;20709;-49
2021/07/05 05:20:23;;;;;;;0.65;0.47;;;24.90;55.00;;;;;;5073318;28;20031;-46
2021/07/05 05:22:50;;;;;;;1.65;0.50;;;24.90;55.00;;;;;;5068527;28;20112;-47
2021/07/05 05:25:18;;;;;;;0.90;0.50;;;24.90;55.00;;;;;;5057216;28;20059;-46
2021/07/05 05:27:45;;;;;;;0.60;0.60;;;25.00;55.20;;;;;;5044786;28;20049;-57
2021/07/05 05:30:12;;;;;;;1.05;0.55;;;25.00;55.30;;;;;;5054257;28;20526;-47
2021/07/05 05:32:38;;;;;;;0.80;0.50;;;24.90;55.10;;;;;;5055103;28;20029;-47
2021/07/05 05:35:06;;;;;;;0.50;0.50;;;25.00;55.20;;;;;;5066025;28;20032;-48
2021/07/05 05:37:32;;;;;;;2.58;0.52;;;24.90;55.20;;;;;;5068075;28;20042;-46
2021/07/05 05:39:58;;;;;;;0.80;0.70;;;24.90;55.30;;;;;;5070859;28;20032;-50
2021/07/05 05:42:24;;;;;;;0.60;0.40;;;24.90;55.60;;;;;;5055472;28;20037;-49
2021/07/05 05:44:50;;;;;;;4.28;0.70;;;25.00;56.10;;;;;;5060728;28;20061;-48
2021/07/05 05:47:16;;;;;;;1.40;1.10;;;25.00;56.10;;;;;;5054084;28;20037;-46
2021/07/05 05:49:42;;;;;;;0.80;0.70;;;25.10;56.20;;;;;;5070437;28;20390;-48
2021/07/05 05:52:08;;;;;;;1.70;0.70;;;25.10;56.30;;;;;;5072564;28;20028;-48
2021/07/05 05:54:34;;;;;;;3.25;0.73;;;25.00;56.30;;;;;;5066211;28;20036;-45
2021/07/05 05:57:00;;;;;;;1.50;0.68;;;25.00;56.30;;;;;;5053655;28;20025;-48
2021/07/05 05:59:25;;;;;;;1.83;0.85;;;25.00;56.30;;;;;;5054800;28;20044;-45
2021/07/05 06:01:51;;;;;;;3.25;0.77;;;25.00;56.50;;;;;;5069017;28;20431;-45
2021/07/05 06:04:21;;;;;;;2.40;0.80;;;25.00;57.10;;;;;;5065620;28;20081;-49
2021/07/05 06:06:47;;;;;;;2.25;1.00;;;24.90;57.10;;;;;;5069045;28;20048;-47
2021/07/05 06:09:14;;;;;;;14.15;1.45;;;25.00;56.80;;;;;;5069769;28;20394;-46
2021/07/05 06:11:40;;;;;;;5.07;1.20;;;25.00;56.90;;;;;;5070926;28;20028;-45
2021/07/05 06:14:07;;;;;;;4.63;1.23;;;25.00;56.90;;;;;;5069376;28;20090;-46
2021/07/05 06:16:34;;;;;;;3.47;0.90;;;25.00;56.50;;;;;;5057982;28;20037;-46
2021/07/05 06:19:00;;;;;;;2.38;0.82;;;25.00;56.40;;;;;;5066421;28;20598;-49
2021/07/05 06:21:27;;;;;;;1.45;0.68;;;25.00;56.20;;;;;;5044666;28;20474;-45
2021/07/05 06:23:58;;;;;;;3.08;0.90;;;25.00;56.30;;;;;;5071339;28;20151;-49
2021/07/05 06:26:24;;;;;;;1.80;0.70;;;25.00;56.20;;;;;;5062838;28;20490;-53
2021/07/05 06:28:50;;;;;;;3.25;0.80;;;25.00;56.20;;;;;;5062149;28;20032;-50
2021/07/05 06:31:16;;;;;;;1.63;0.80;;;25.00;56.30;;;;;;5063662;28;20108;-48
2021/07/05 06:33:42;;;;;;;2.65;0.80;;;25.00;56.30;;;;;;5063153;28;20491;-57
2021/07/05 06:36:07;;;;;;;2.17;1.02;;;25.00;56.30;;;;;;5043447;28;20382;-49
2021/07/05 06:38:33;;;;;;;2.72;0.80;;;25.00;56.30;;;;;;5058434;28;20029;-51
2021/07/05 06:40:59;;;;;;;2.17;0.85;;;25.00;56.60;;;;;;5058218;28;20033;-47
2021/07/05 06:43:25;;;;;;;2.25;0.65;;;25.00;56.50;;;;;;5052608;28;20462;-51
2021/07/05 06:45:51;;;;;;;0.90;0.50;;;25.00;56.70;;;;;;5061883;28;20115;-49
2021/07/05 06:48:17;;;;;;;3.03;0.70;;;25.00;56.50;;;;;;5072033;28;20039;-47
2021/07/05 06:50:43;;;;;;;2.00;0.88;;;25.00;56.50;;;;;;5056718;28;20035;-57
2021/07/05 06:53:09;;;;;;;1.88;0.77;;;25.00;56.70;;;;;;5051885;28;20424;-47
2021/07/05 06:55:35;;;;;;;2.53;0.77;;;25.00;57.00;;;;;;5052467;28;20037;-50
2021/07/05 06:58:01;;;;;;;1.20;0.73;;;25.00;57.10;;;;;;5051789;28;20036;-51
2021/07/05 07:00:29;;;;;;;1.08;0.63;;;25.00;57.00;;;;;;5060891;28;20041;-50
2021/07/05 07:02:56;;;;;;;3.03;0.80;;;25.00;57.10;;;;;;5051547;28;20040;-48
2021/07/05 07:05:23;;;;;;;3.05;0.60;;;25.00;57.10;;;;;;5052321;28;20061;-49
2021/07/05 07:07:57;;;;;;;2.03;0.70;;;25.00;57.20;;;;;;5067412;28;20108;-48
2021/07/05 07:10:25;;;;;;;2.60;0.70;;;25.00;57.10;;;;;;5060272;28;20027;-47
2021/07/05 07:12:54;;;;;;;1.02;0.77;;;25.00;57.20;;;;;;5068657;28;20215;-52
2021/07/05 07:15:24;;;;;;;4.72;0.73;;;25.00;57.20;;;;;;5062169;28;20091;-46
2021/07/05 07:20:15;;;;;;;3.90;0.90;;;25.00;57.20;;;;;;5059049;28;20714;-49
2021/07/05 07:22:41;;;;;;;2.95;0.60;;;25.00;57.20;;;;;;5071269;28;20029;-53
2021/07/05 07:25:09;;;;;;;3.10;0.88;;;25.10;57.30;;;;;;5052557;28;20051;-52
2021/07/05 07:27:35;;;;;;;7.65;0.80;;;25.10;57.30;;;;;;5064155;28;20044;-52
2021/07/05 07:30:05;;;;;;;3.83;0.85;;;25.10;57.30;;;;;;5055677;28;20029;-49
2021/07/05 07:32:31;;;;;;;3.22;0.60;;;25.10;57.30;;;;;;5063193;28;20037;-50
2021/07/05 07:34:57;;;;;;;2.05;0.70;;;25.10;57.20;;;;;;5050674;28;20488;-52
2021/07/05 07:37:23;;;;;;;2.47;0.80;;;25.20;57.40;;;;;;5056216;28;20025;-53
2021/07/05 07:39:56;;;;;;;0.80;0.50;;;25.10;57.40;;;;;;5052916;28;20112;-51
2021/07/05 07:42:22;;;;;;;7.40;0.95;;;25.20;57.50;;;;;;5063707;28;20394;-51
2021/07/05 07:44:47;;;;;;;2.55;0.63;;;25.20;57.50;;;;;;5051546;28;20041;-52
2021/07/05 07:47:13;;;;;;;2.80;0.70;;;25.20;57.60;;;;;;5069984;28;20480;-47
2021/07/05 07:49:39;;;;;;;1.55;0.70;;;25.20;57.90;;;;;;5068723;28;20533;-50
2021/07/05 07:52:05;;;;;;;5.15;0.80;;;25.20;58.00;;;;;;5070148;28;20257;-47
2021/07/05 07:54:31;;;;;;;1.63;0.50;;;25.20;58.00;;;;;;5071343;28;20110;-52
2021/07/05 07:56:57;;;;;;;4.55;0.80;;;25.10;58.40;;;;;;5057001;28;20386;-47
2021/07/05 07:59:23;;;;;;;2.58;0.75;;;25.10;58.50;;;;;;5070526;28;20039;-46
2021/07/05 08:01:48;;;;;;;2.38;0.80;;;25.20;58.40;;;;;;5060383;28;20076;-46
2021/07/05 08:04:15;;;;;;;5.68;0.55;;;25.20;58.20;;;;;;5063353;28;20126;-54
2021/07/05 08:06:41;;;;;;;1.00;0.70;;;25.30;58.10;;;;;;5063014;28;20037;-49
2021/07/05 08:09:07;;;;;;;2.90;0.85;;;25.30;58.00;;;;;;5058127;28;20031;-47
2021/07/05 08:11:34;;;;;;;3.08;0.68;;;25.30;57.90;;;;;;5064716;28;20048;-48
2021/07/05 08:14:01;;;;;;;3.45;0.80;;;25.40;57.80;;;;;;5051086;28;20056;-50
2021/07/05 08:16:28;;;;;;;4.70;0.88;;;25.40;57.80;;;;;;5063982;28;20048;-45
2021/07/05 08:18:53;;;;;;;2.35;0.93;;;25.50;57.80;;;;;;5060049;28;20025;-48
2021/07/05 08:21:19;;;;;;;2.17;1.08;;;25.40;57.80;;;;;;5065186;28;20029;-46
2021/07/05 08:23:45;;;;;;;2.10;0.63;;;25.40;57.80;;;;;;5058256;28;20055;-58
2021/07/05 08:26:12;;;;;;;2.03;0.65;;;25.40;57.60;;;;;;5068336;28;20037;-50
2021/07/05 08:28:38;;;;;;;2.30;0.60;;;25.40;57.70;;;;;;5056708;28;20029;-59
2021/07/05 08:31:05;;;;;;;3.15;0.70;;;25.40;57.70;;;;;;5051184;28;20397;-50
2021/07/05 08:33:31;;;;;;;2.22;0.70;;;25.40;57.80;;;;;;5050988;28;20040;-48
2021/07/05 08:35:58;;;;;;;2.17;0.65;;;25.30;58.50;;;;;;5050155;28;20036;-49
2021/07/05 08:38:25;;;;;;;5.68;0.95;;;25.30;58.10;;;;;;5058311;28;20107;-45
2021/07/05 08:40:51;;;;;;;4.68;0.60;;;25.30;58.10;;;;;;5054966;28;20104;-49
2021/07/05 08:43:19;;;;;;;2.42;0.70;;;25.30;58.00;;;;;;5051060;28;20509;-50
2021/07/05 08:45:46;;;;;;;1.92;0.60;;;25.40;57.80;;;;;;5050602;28;20041;-60
2021/07/05 08:48:13;;;;;;;1.20;0.70;;;25.40;57.70;;;;;;5066380;28;20032;-50
2021/07/05 08:50:41;;;;;;;1.85;0.75;;;25.40;57.70;;;;;;5068594;28;20129;-62
2021/07/05 08:53:07;;;;;;;2.92;0.65;;;25.40;57.70;;;;;;5053274;28;20059;-59
2021/07/05 08:55:32;;;;;;;2.38;0.77;;;25.40;57.60;;;;;;5061575;28;20438;-62
2021/07/05 08:57:58;;;;;;;5.82;1.13;;;25.40;57.70;;;;;;5065997;28;20103;-61
2021/07/05 09:00:27;;;;;;;4.13;0.75;;;25.40;57.70;;;;;;5064307;28;20048;-66
2021/07/05 09:02:55;;;;;;;3.78;0.70;;;25.50;57.60;;;;;;5067844;28;20036;-65
2021/07/05 09:05:21;;;;;;;4.82;0.93;;;25.50;57.60;;;;;;5055141;28;20064;-61
2021/07/05 09:08:03;;;;;;;3.28;0.93;;;25.50;57.50;;;;;;5053720;28;20067;-70
2021/07/05 09:10:47;;;;;;;3.13;0.65;;;25.60;57.50;;;;;;5052364;28;20025;-68
2021/07/05 09:13:17;;;;;;;2.28;0.65;;;25.50;57.30;;;;;;5050618;28;20029;-58
2021/07/05 09:15:50;;;;;;;5.75;0.80;;;25.50;57.70;;;;;;5057172;28;20028;-53
2021/07/05 09:18:30;;;;;;;10.50;0.98;;;25.50;57.60;;;;;;5067509;28;20083;-64
2021/07/05 09:21:09;;;;;;;44.10;2.15;;;25.50;57.40;;;;;;5065442;28;20382;-59
2021/07/05 09:23:35;;;;;;;7.45;0.80;;;25.60;58.00;;;;;;5054492;28;20108;-63
2021/07/05 09:26:02;;;;;;;3.72;0.75;;;25.60;58.00;;;;;;5058883;28;20032;-62
2021/07/05 09:28:36;;;;;;;8.18;0.85;;;25.60;58.10;;;;;;5055618;28;20417;-63
2021/07/05 09:31:02;;;;;;;4.00;0.80;;;25.60;58.10;;;;;;5067855;28;20489;-64
2021/07/05 09:33:29;;;;;;;6.03;0.93;;;25.60;57.70;;;;;;5066096;28;20025;-64
2021/07/05 09:36:04;;;;;;;5.80;0.73;;;25.50;59.10;;;;;;5072617;28;20038;-65
2021/07/05 09:38:41;;;;;;;2.13;0.57;;;25.50;59.00;;;;;;5073103;28;20025;-64
2021/07/05 09:41:27;;;;;;;1.60;0.60;;;25.40;59.00;;;;;;5067372;28;20021;-64
2021/07/05 09:44:01;;;;;;;1.75;0.93;;;25.30;59.00;;;;;;5055906;28;20101;-63
2021/07/05 09:46:40;;;;;;;3.60;0.63;;;25.30;58.90;;;;;;5061611;28;20119;-64
2021/07/05 09:49:21;;;;;;;2.58;0.60;;;25.30;58.50;;;;;;5065110;28;20064;-62
2021/07/05 09:52:06;;;;;;;2.57;0.60;;;25.30;58.60;;;;;;5072382;28;20085;-64
2021/07/05 09:54:34;;;;;;;1.92;0.45;;;25.30;58.50;;;;;;5068615;28;20040;-63
2021/07/05 09:57:01;;;;;;;1.50;0.60;;;25.30;58.50;;;;;;5072343;28;20038;-64
2021/07/05 09:59:28;;;;;;;2.85;0.68;;;25.30;58.40;;;;;;5065042;28;20486;-63
2021/07/05 10:01:58;;;;;;;1.55;0.70;;;25.30;58.30;;;;;;5063764;28;20045;-62
2021/07/05 10:04:37;;;;;;;3.10;0.70;;;25.30;58.20;;;;;;5067041;28;20371;-64
2021/07/05 10:07:04;;;;;;;1.00;0.40;;;25.30;58.30;;;;;;5071890;28;20033;-63
2021/07/05 10:09:34;;;;;;;1.10;0.60;;;25.40;58.10;;;;;;5065419;28;20029;-63
2021/07/05 10:12:14;;;;;;;2.72;0.63;;;25.40;58.00;;;;;;5066036;28;20029;-63
2021/07/05 10:14:40;;;;;;;3.28;0.47;;;25.30;58.20;;;;;;5054706;28;20370;-61
2021/07/05 10:17:16;;;;;;;1.42;0.60;;;25.30;58.20;;;;;;5060271;28;20034;-62
2021/07/05 10:19:42;;;;;;;1.15;0.60;;;25.40;58.30;;;;;;5063281;28;20029;-62
2021/07/05 10:22:12;;;;;;;4.18;0.63;;;25.40;58.10;;;;;;5067650;28;20021;-62
2021/07/05 10:24:39;;;;;;;1.17;0.50;;;25.50;57.80;;;;;;5053167;28;20032;-61
2021/07/05 10:27:05;;;;;;;1.63;0.50;;;25.50;57.60;;;;;;5052162;28;20063;-63
2021/07/05 10:29:35;;;;;;;1.77;0.60;;;25.50;57.50;;;;;;5064452;28;20513;-61
2021/07/05 10:32:02;;;;;;;1.52;0.60;;;25.60;57.60;;;;;;5066535;28;20028;-61
2021/07/05 10:34:28;;;;;;;3.50;0.60;;;25.60;57.50;;;;;;5072378;28;20033;-64
2021/07/05 10:36:54;;;;;;;3.75;0.80;;;25.60;57.50;;;;;;5071279;28;20028;-61
2021/07/05 10:39:22;;;;;;;4.20;1.30;;;25.70;57.60;;;;;;5072111;28;20020;-57
2021/07/05 10:41:48;;;;;;;3.35;0.70;;;25.70;57.70;;;;;;5063613;28;20032;-66
2021/07/05 10:44:19;;;;;;;5.80;0.73;;;25.70;57.60;;;;;;5067553;28;20473;-63
2021/07/05 10:46:53;;;;;;;;;;;25.70;57.60;;;;;;5053334;28;20033;-62
2021/07/05 10:49:27;;;;;;;3.55;0.80;;;25.70;57.60;;;;;;5053299;28;19956;-61
2021/07/05 10:51:55;;;;;;;4.78;0.88;;;25.70;57.60;;;;;;5052867;28;21625;-61
2021/07/05 10:54:44;;;;;;;5.68;0.70;;;25.70;57.60;;;;;;5058121;28;20029;-58
2021/07/05 10:57:11;;;;;;;4.00;0.60;;;25.70;57.60;;;;;;5063454;28;20108;-61
2021/07/05 10:59:40;;;;;;;0.88;0.50;;;25.70;57.50;;;;;;5071056;28;20490;-62
2021/07/05 11:02:39;;;;;;;8.02;1.13;;;25.70;57.50;;;;;;5053905;28;20047;-60
2021/07/05 11:05:35;;;;;;;3.40;0.65;;;25.60;58.30;;;;;;5051495;28;20493;-60
2021/07/05 11:08:16;;;;;;;5.90;0.77;;;25.70;57.90;;;;;;5065050;28;20070;-60
2021/07/05 11:10:43;;;;;;;3.37;0.83;;;25.60;57.70;;;;;;5054972;28;20036;-60
2021/07/05 11:13:09;;;;;;;2.28;0.60;;;25.70;57.80;;;;;;5051512;28;20025;-60
2021/07/05 11:15:53;;;;;;;2.47;0.90;;;25.70;57.80;;;;;;5052514;28;20371;-59
2021/07/05 11:18:37;;;;;;;2.70;0.75;;;25.70;58.00;;;;;;5070761;28;20054;-59
2021/07/05 11:21:07;;;;;;;1.95;0.70;;;25.70;57.80;;;;;;5064469;28;20470;-59
2021/07/05 11:23:55;;;;;;;3.97;0.88;;;25.70;58.00;;;;;;5071201;28;20036;-59
2021/07/05 11:26:23;;;;;;;7.85;0.60;;;25.70;58.00;;;;;;5071306;28;20036;-60
2021/07/05 11:29:13;;;;;;;4.10;0.68;;;25.70;58.00;;;;;;5069487;28;20037;-60
2021/07/05 11:31:55;;;;;;;3.35;0.70;;;25.70;58.00;;;;;;5071358;28;20040;-60
2021/07/05 11:34:30;;;;;;;;;;;25.70;58.40;;;;;;5072384;28;20449;-59
2021/07/05 11:37:10;;;;;;;4.22;1.30;;;25.70;59.00;;;;;;5069985;28;19908;-55
2021/07/05 11:39:43;;;;;;;2.70;0.73;;;25.70;59.30;;;;;;5063351;28;20497;-61
2021/07/05 11:42:11;;;;;;;3.42;0.82;;;25.70;58.90;;;;;;5069961;28;20105;-59
2021/07/05 11:44:46;;;;;;;5.43;0.90;;;25.70;59.10;;;;;;5071090;28;20032;-59
2021/07/05 11:47:32;;;;;;;3.22;0.95;;;25.70;59.20;;;;;;5070157;28;20024;-59
2021/07/05 11:50:24;;;;;;;5.50;0.82;;;25.70;59.10;;;;;;5053918;28;20536;-59
2021/07/05 11:52:52;;;;;;;5.50;0.80;;;25.70;59.00;;;;;;5051574;28;20036;-61
2021/07/05 11:55:19;;;;;;;1.85;0.73;;;25.70;58.70;;;;;;5050835;28;20029;-61
2021/07/05 11:57:52;;;;;;;4.25;0.75;;;25.70;58.60;;;;;;5054331;28;20289;-64
2021/07/05 12:00:22;;;;;;;5.20;0.70;;;25.70;58.60;;;;;;5070816;28;20470;-63
2021/07/05 12:03:10;;;;;;;1.95;0.60;;;25.70;58.60;;;;;;5044359;28;20040;-65
2021/07/05 12:05:41;;;;;;;1.35;0.50;;;25.70;58.60;;;;;;5070867;28;20036;-62
2021/07/05 12:08:10;;;;;;;5.80;0.85;;;25.80;58.50;;;;;;5068624;28;20056;-60
2021/07/05 12:10:39;;;;;;;0.50;0.40;;;25.80;58.70;;;;;;5071018;28;20036;-59
2021/07/05 12:13:23;;;;;;;1.33;0.70;;;25.80;58.50;;;;;;5069965;28;20363;-60
2021/07/05 12:16:00;;;;;;;4.32;0.60;;;25.80;58.60;;;;;;5051616;28;20056;-60
2021/07/05 12:18:26;;;;;;;3.55;0.60;;;25.80;58.70;;;;;;5051688;28;20041;-59
2021/07/05 12:21:02;;;;;;;6.93;0.85;;;25.80;59.40;;;;;;5050703;28;20061;-60
2021/07/05 12:23:39;;;;;;;2.88;0.70;;;25.80;58.80;;;;;;5051368;28;20033;-60
2021/07/05 12:26:16;;;;;;;3.05;0.70;;;25.80;58.90;;;;;;5050759;28;20056;-60
2021/07/05 12:29:01;;;;;;;6.13;1.45;;;25.80;58.90;;;;;;5063586;28;20103;-60
2021/07/05 12:31:27;;;;;;;1.15;0.90;;;25.80;59.10;;;;;;5070491;28;20389;-59
2021/07/05 12:33:53;;;;;;;3.15;0.60;;;25.80;59.10;;;;;;5071033;28;20029;-62
2021/07/05 12:36:19;;;;;;;8.38;0.88;;;25.80;59.00;;;;;;5068627;28;20078;-67
2021/07/05 12:39:06;;;;;;;3.70;0.73;;;25.80;59.30;;;;;;5070093;28;20037;-60
2021/07/05 12:41:36;;;;;;;1.98;0.68;;;25.80;59.30;;;;;;5054545;28;20033;-59
2021/07/05 12:44:10;;;;;;;4.82;0.60;;;25.80;59.20;;;;;;5069261;28;20032;-59
2021/07/05 12:46:36;;;;;;;3.50;0.60;;;25.80;59.00;;;;;;5050816;28;20503;-53
2021/07/05 12:49:02;;;;;;;2.72;0.80;;;25.80;58.90;;;;;;5069858;28;20115;-60
2021/07/05 12:51:28;;;;;;;3.00;0.73;;;25.80;58.80;;;;;;5073095;28;20039;-59
2021/07/05 12:53:54;;;;;;;3.22;0.75;;;25.90;59.00;;;;;;5057313;28;20136;-62
2021/07/05 12:56:28;;;;;;;0.95;0.55;;;25.90;58.90;;;;;;5059310;28;20037;-61